createdAt,value
2023-01-13T00:08:28.487Z,0.07
2023-01-13T00:18:33.583Z,0.10
2023-01-13T00:28:37.470Z,0.63
2023-01-13T00:38:43.277Z,0.07
2023-01-13T00:48:47.202Z,0.10
2023-01-13T00:58:52.385Z,2.00
2023-01-13T01:08:56.879Z,0.20
2023-01-13T01:19:02.698Z,0.13
2023-01-13T01:29:05.749Z,0.67
2023-01-13T01:49:34.884Z,1.37
2023-01-13T01:59:40.895Z,2.77
2023-01-13T02:09:44.757Z,0.30
2023-01-13T02:20:29.743Z,2.00
2023-01-13T02:31:01.471Z,0.97
2023-01-13T02:41:35.087Z,4.50
2023-01-13T02:51:42.427Z,3.93
2023-01-13T03:01:46.628Z,2.00
2023-01-13T03:11:58.025Z,1.67
2023-01-13T03:22:09.785Z,2.40
2023-01-13T03:32:19.535Z,0.90
2023-01-13T03:42:26.176Z,5.70
2023-01-13T03:52:34.584Z,6.03
2023-01-13T04:02:46.315Z,8.13
2023-01-13T04:13:04.314Z,8.40
2023-01-13T04:23:07.697Z,3.17
2023-01-13T04:33:12.812Z,5.17
2023-01-13T04:43:16.105Z,12.50
2023-01-13T04:53:20.490Z,9.53
2023-01-13T05:03:24.377Z,9.43
2023-01-13T05:13:46.294Z,9.13
2023-01-13T05:24:12.121Z,12.60
2023-01-13T05:34:16.667Z,12.27
2023-01-13T05:44:19.571Z,8.30
2023-01-13T05:54:24.055Z,5.70
2023-01-13T06:04:27.053Z,8.43
2023-01-13T06:14:40.249Z,6.63
2023-01-13T06:24:44.205Z,7.87
2023-01-13T06:34:52.796Z,6.57
2023-01-13T06:44:55.969Z,8.33
2023-01-13T06:55:00.272Z,3.93
2023-01-13T07:05:03.391Z,4.33
2023-01-13T07:15:21.370Z,7.63
2023-01-13T07:25:25.133Z,7.20
2023-01-13T07:35:29.721Z,5.83
2023-01-13T07:45:33.163Z,6.33
2023-01-13T07:55:42.615Z,5.33
2023-01-13T08:05:46.705Z,5.70
2023-01-13T08:15:53.037Z,4.90
2023-01-13T08:25:56.289Z,6.37
2023-01-13T08:36:03.830Z,5.97
2023-01-13T08:47:00.216Z,9.63
2023-01-13T08:57:04.626Z,10.03
2023-01-13T09:07:07.517Z,9.37
2023-01-13T09:17:12.381Z,20.90
2023-01-13T09:27:16.986Z,9.27
2023-01-13T09:37:21.350Z,8.97
2023-01-13T09:47:29.793Z,9.33
2023-01-13T09:57:38.158Z,11.33
2023-01-13T10:07:48.411Z,9.83
2023-01-13T10:17:59.640Z,11.23
2023-01-13T10:28:09.556Z,12.00
2023-01-13T10:38:19.839Z,14.87
2023-01-13T10:48:47.031Z,10.40
2023-01-13T10:58:51.659Z,9.63
2023-01-13T11:08:58.215Z,9.63
2023-01-13T11:19:12.861Z,12.03
2023-01-13T11:29:25.277Z,12.40
2023-01-13T11:39:44.468Z,12.53
2023-01-13T11:49:48.978Z,12.65
2023-01-13T12:00:09.520Z,12.37
2023-01-13T12:10:29.032Z,11.23
2023-01-13T12:20:44.804Z,6.03
2023-01-13T12:30:51.999Z,12.07
2023-01-13T12:41:07.620Z,13.33
2023-01-13T12:51:23.169Z,12.93
2023-01-13T13:01:37.078Z,13.60
2023-01-13T13:12:03.110Z,10.73
2023-01-13T13:22:36.158Z,17.80
2023-01-13T13:32:57.495Z,9.90
2023-01-13T13:43:19.235Z,7.70
2023-01-13T13:53:24.816Z,8.47
2023-01-13T14:03:32.331Z,9.30
2023-01-13T14:13:35.402Z,8.40
2023-01-13T14:23:39.680Z,12.07
2023-01-13T14:33:46.001Z,12.23
2023-01-13T14:43:51.830Z,11.63
2023-01-13T14:53:58.075Z,11.90
2023-01-13T15:04:18.375Z,12.40
2023-01-13T15:14:27.180Z,7.07
2023-01-13T15:24:32.103Z,15.90
2023-01-13T15:34:35.128Z,13.63
2023-01-13T15:44:58.008Z,10.23
2023-01-13T15:55:01.167Z,14.07
2023-01-13T16:05:06.227Z,10.27
2023-01-13T16:15:11.039Z,16.43
2023-01-13T16:25:20.283Z,16.10
2023-01-13T16:35:24.052Z,19.35
2023-01-13T16:45:29.148Z,19.23
2023-01-13T16:55:32.401Z,14.53
2023-01-13T17:05:39.499Z,13.20
2023-01-13T17:15:42.743Z,19.17
2023-01-13T17:25:47.049Z,18.87
2023-01-13T17:35:50.121Z,19.47
2023-01-13T17:45:54.923Z,23.43
2023-01-13T17:55:58.297Z,20.60
2023-01-13T18:06:05.347Z,21.47
2023-01-13T18:16:11.001Z,16.17
2023-01-13T18:26:38.542Z,16.47
2023-01-13T18:36:41.778Z,13.80
2023-01-13T18:46:46.432Z,20.90
2023-01-13T18:56:50.362Z,12.50
2023-01-13T19:07:00.427Z,14.83
2023-01-13T19:17:06.367Z,16.13
2023-01-13T19:27:11.274Z,14.73
2023-01-13T19:37:14.721Z,13.67
2023-01-13T19:47:20.238Z,19.23
2023-01-13T19:57:23.321Z,18.70
2023-01-13T20:07:29.341Z,24.97
2023-01-13T20:17:32.111Z,20.60
2023-01-13T20:27:36.595Z,9.00
2023-01-13T20:37:41.067Z,19.87
2023-01-13T20:47:45.773Z,13.00
2023-01-13T20:57:50.240Z,14.43
2023-01-13T21:07:54.521Z,15.00
2023-01-13T21:18:16.297Z,20.97
2023-01-13T21:28:22.469Z,17.87
2023-01-13T21:38:27.070Z,22.73
2023-01-13T21:48:31.367Z,26.87
2023-01-13T21:58:34.529Z,18.27
2023-01-13T22:08:39.478Z,13.93
2023-01-13T22:18:43.861Z,17.50
2023-01-13T22:28:48.399Z,29.63
2023-01-13T22:38:54.799Z,19.00
2023-01-13T22:48:59.194Z,22.00
2023-01-13T22:59:04.655Z,18.00
2023-01-13T23:09:10.196Z,23.27
2023-01-13T23:19:15.018Z,19.60
2023-01-13T23:29:19.606Z,19.43
2023-01-13T23:39:24.149Z,21.23
2023-01-13T23:49:28.751Z,28.37
2023-01-13T23:59:31.983Z,19.37
